sensor_id;sensor_type;location;lat;lon;timestamp;temperature;humidity
12013;DHT22;6065;48.138;16.402;2023-09-19T00:00:30;22.30;99.70
12013;DHT22;6065;48.138;16.402;2023-09-19T00:02:59;22.30;99.90
12013;DHT22;6065;48.138;16.402;2023-09-19T00:05:27;22.20;99.90
12013;DHT22;6065;48.138;16.402;2023-09-19T00:07:55;22.10;99.90
12013;DHT22;6065;48.138;16.402;2023-09-19T00:10:23;22.10;99.90
12013;DHT22;6065;48.138;16.402;2023-09-19T00:12:52;22.00;99.90
12013;DHT22;6065;48.138;16.402;2023-09-19T00:15:20;21.90;99.90
12013;DHT22;6065;48.138;16.402;2023-09-19T00:17:47;21.80;99.90
12013;DHT22;6065;48.138;16.402;2023-09-19T00:20:14;21.80;99.90
12013;DHT22;6065;48.138;16.402;2023-09-19T00:22:44;21.70;99.90
12013;DHT22;6065;48.138;16.402;2023-09-19T00:25:11;21.60;99.90
12013;DHT22;6065;48.138;16.402;2023-09-19T00:27:40;21.50;99.90
12013;DHT22;6065;48.138;16.402;2023-09-19T00:30:08;21.50;99.90
12013;DHT22;6065;48.138;16.402;2023-09-19T00:32:40;21.50;99.90
12013;DHT22;6065;48.138;16.402;2023-09-19T00:35:06;21.40;99.90
12013;DHT22;6065;48.138;16.402;2023-09-19T00:37:36;21.40;99.90
12013;DHT22;6065;48.138;16.402;2023-09-19T00:40:07;21.30;99.90
12013;DHT22;6065;48.138;16.402;2023-09-19T00:42:37;21.30;99.90
12013;DHT22;6065;48.138;16.402;2023-09-19T00:45:05;21.30;99.90
12013;DHT22;6065;48.138;16.402;2023-09-19T00:47:32;21.20;99.90
12013;DHT22;6065;48.138;16.402;2023-09-19T00:49:59;21.20;99.90
12013;DHT22;6065;48.138;16.402;2023-09-19T00:52:25;21.20;99.90
12013;DHT22;6065;48.138;16.402;2023-09-19T00:54:53;21.20;99.90
12013;DHT22;6065;48.138;16.402;2023-09-19T00:57:21;21.10;99.90
12013;DHT22;6065;48.138;16.402;2023-09-19T00:59:48;21.10;99.90
12013;DHT22;6065;48.138;16.402;2023-09-19T01:02:16;21.10;99.90
12013;DHT22;6065;48.138;16.402;2023-09-19T01:04:43;21.10;99.90
12013;DHT22;6065;48.138;16.402;2023-09-19T01:07:11;21.10;99.90
12013;DHT22;6065;48.138;16.402;2023-09-19T01:09:40;21.10;99.90
12013;DHT22;6065;48.138;16.402;2023-09-19T01:12:06;21.00;99.90
12013;DHT22;6065;48.138;16.402;2023-09-19T01:14:38;21.00;99.90
12013;DHT22;6065;48.138;16.402;2023-09-19T01:17:09;20.90;99.90
12013;DHT22;6065;48.138;16.402;2023-09-19T01:22:37;20.90;99.90
12013;DHT22;6065;48.138;16.402;2023-09-19T01:25:20;20.90;99.90
12013;DHT22;6065;48.138;16.402;2023-09-19T01:30:42;20.80;99.90
12013;DHT22;6065;48.138;16.402;2023-09-19T01:33:10;20.80;99.90
12013;DHT22;6065;48.138;16.402;2023-09-19T01:35:37;20.70;99.90
12013;DHT22;6065;48.138;16.402;2023-09-19T01:38:04;20.70;99.90
12013;DHT22;6065;48.138;16.402;2023-09-19T01:40:32;20.60;99.90
12013;DHT22;6065;48.138;16.402;2023-09-19T01:43:04;20.60;99.90
12013;DHT22;6065;48.138;16.402;2023-09-19T01:45:37;20.60;99.90
12013;DHT22;6065;48.138;16.402;2023-09-19T01:48:13;20.60;99.90
12013;DHT22;6065;48.138;16.402;2023-09-19T01:50:47;20.50;99.90
12013;DHT22;6065;48.138;16.402;2023-09-19T01:53:21;20.40;99.90
12013;DHT22;6065;48.138;16.402;2023-09-19T01:55:48;20.40;99.90
12013;DHT22;6065;48.138;16.402;2023-09-19T01:58:17;20.30;99.90
12013;DHT22;6065;48.138;16.402;2023-09-19T02:00:48;20.30;99.90
12013;DHT22;6065;48.138;16.402;2023-09-19T02:03:18;20.20;99.90
12013;DHT22;6065;48.138;16.402;2023-09-19T02:05:48;20.20;99.90
12013;DHT22;6065;48.138;16.402;2023-09-19T02:08:16;20.20;99.90
12013;DHT22;6065;48.138;16.402;2023-09-19T02:10:43;20.20;99.90
12013;DHT22;6065;48.138;16.402;2023-09-19T02:13:15;20.20;99.90
12013;DHT22;6065;48.138;16.402;2023-09-19T02:15:42;20.30;99.90
12013;DHT22;6065;48.138;16.402;2023-09-19T02:18:10;20.20;99.90
12013;DHT22;6065;48.138;16.402;2023-09-19T02:20:39;20.20;99.90
12013;DHT22;6065;48.138;16.402;2023-09-19T02:23:06;20.10;99.90
12013;DHT22;6065;48.138;16.402;2023-09-19T02:25:33;20.10;99.90
12013;DHT22;6065;48.138;16.402;2023-09-19T02:28:00;20.10;99.90
12013;DHT22;6065;48.138;16.402;2023-09-19T02:30:28;20.20;99.90
12013;DHT22;6065;48.138;16.402;2023-09-19T02:32:55;20.20;99.90
12013;DHT22;6065;48.138;16.402;2023-09-19T02:35:21;20.20;99.90
12013;DHT22;6065;48.138;16.402;2023-09-19T02:37:50;20.10;99.90
12013;DHT22;6065;48.138;16.402;2023-09-19T02:40:17;20.10;99.90
12013;DHT22;6065;48.138;16.402;2023-09-19T02:42:47;20.10;99.90
12013;DHT22;6065;48.138;16.402;2023-09-19T02:45:15;20.10;99.90
12013;DHT22;6065;48.138;16.402;2023-09-19T02:47:42;20.10;99.90
12013;DHT22;6065;48.138;16.402;2023-09-19T02:50:09;20.10;99.90
12013;DHT22;6065;48.138;16.402;2023-09-19T02:52:36;20.10;99.90
12013;DHT22;6065;48.138;16.402;2023-09-19T02:55:05;20.10;99.90
12013;DHT22;6065;48.138;16.402;2023-09-19T02:57:35;20.00;99.90
12013;DHT22;6065;48.138;16.402;2023-09-19T03:00:06;20.00;99.90
12013;DHT22;6065;48.138;16.402;2023-09-19T03:02:33;20.10;99.90
12013;DHT22;6065;48.138;16.402;2023-09-19T03:05:00;20.10;99.90
12013;DHT22;6065;48.138;16.402;2023-09-19T03:07:28;20.10;99.90
12013;DHT22;6065;48.138;16.402;2023-09-19T03:09:55;20.10;99.90
12013;DHT22;6065;48.138;16.402;2023-09-19T03:12:23;20.10;99.90
12013;DHT22;6065;48.138;16.402;2023-09-19T03:14:50;20.10;99.90
12013;DHT22;6065;48.138;16.402;2023-09-19T03:17:17;20.10;99.90
12013;DHT22;6065;48.138;16.402;2023-09-19T03:19:45;20.10;99.90
12013;DHT22;6065;48.138;16.402;2023-09-19T03:22:12;20.10;99.90
12013;DHT22;6065;48.138;16.402;2023-09-19T03:24:39;20.10;99.90
12013;DHT22;6065;48.138;16.402;2023-09-19T03:27:08;20.10;99.90
12013;DHT22;6065;48.138;16.402;2023-09-19T03:29:36;20.10;99.90
12013;DHT22;6065;48.138;16.402;2023-09-19T03:32:04;20.10;99.90
12013;DHT22;6065;48.138;16.402;2023-09-19T03:34:31;20.10;99.90
12013;DHT22;6065;48.138;16.402;2023-09-19T03:36:59;20.10;99.90
12013;DHT22;6065;48.138;16.402;2023-09-19T03:39:25;20.10;99.90
12013;DHT22;6065;48.138;16.402;2023-09-19T03:41:52;20.10;99.90
12013;DHT22;6065;48.138;16.402;2023-09-19T03:44:19;20.10;99.90
12013;DHT22;6065;48.138;16.402;2023-09-19T03:46:47;20.10;99.90
12013;DHT22;6065;48.138;16.402;2023-09-19T03:49:13;20.10;99.90
12013;DHT22;6065;48.138;16.402;2023-09-19T03:51:40;20.10;99.90
12013;DHT22;6065;48.138;16.402;2023-09-19T03:54:07;20.00;99.90
12013;DHT22;6065;48.138;16.402;2023-09-19T03:56:34;20.00;99.90
12013;DHT22;6065;48.138;16.402;2023-09-19T03:59:01;20.10;99.90
12013;DHT22;6065;48.138;16.402;2023-09-19T04:01:28;20.10;99.90
12013;DHT22;6065;48.138;16.402;2023-09-19T04:03:58;20.10;99.90
12013;DHT22;6065;48.138;16.402;2023-09-19T04:06:33;20.10;99.90
12013;DHT22;6065;48.138;16.402;2023-09-19T04:09:00;20.10;99.90
12013;DHT22;6065;48.138;16.402;2023-09-19T04:11:27;20.00;99.90
12013;DHT22;6065;48.138;16.402;2023-09-19T04:13:54;20.00;99.90
12013;DHT22;6065;48.138;16.402;2023-09-19T04:16:20;20.10;99.90
12013;DHT22;6065;48.138;16.402;2023-09-19T04:18:47;20.10;99.90
12013;DHT22;6065;48.138;16.402;2023-09-19T04:21:15;20.10;99.90
12013;DHT22;6065;48.138;16.402;2023-09-19T04:23:42;20.10;99.90
12013;DHT22;6065;48.138;16.402;2023-09-19T04:26:09;20.10;99.90
12013;DHT22;6065;48.138;16.402;2023-09-19T04:28:37;20.10;99.90
12013;DHT22;6065;48.138;16.402;2023-09-19T04:31:05;20.10;99.90
12013;DHT22;6065;48.138;16.402;2023-09-19T04:33:33;20.10;99.90
12013;DHT22;6065;48.138;16.402;2023-09-19T04:36:00;20.10;99.90
12013;DHT22;6065;48.138;16.402;2023-09-19T04:38:30;20.00;99.90
12013;DHT22;6065;48.138;16.402;2023-09-19T04:40:57;20.00;99.90
12013;DHT22;6065;48.138;16.402;2023-09-19T04:43:24;20.10;99.90
12013;DHT22;6065;48.138;16.402;2023-09-19T04:45:51;20.00;99.90
12013;DHT22;6065;48.138;16.402;2023-09-19T04:48:21;20.00;99.90
12013;DHT22;6065;48.138;16.402;2023-09-19T04:50:49;20.00;99.90
12013;DHT22;6065;48.138;16.402;2023-09-19T04:53:16;19.90;99.90
12013;DHT22;6065;48.138;16.402;2023-09-19T04:55:44;19.90;99.90
12013;DHT22;6065;48.138;16.402;2023-09-19T04:58:11;20.00;99.90
12013;DHT22;6065;48.138;16.402;2023-09-19T05:00:38;20.00;99.90
12013;DHT22;6065;48.138;16.402;2023-09-19T05:03:05;19.90;99.90
12013;DHT22;6065;48.138;16.402;2023-09-19T05:05:32;19.90;99.90
12013;DHT22;6065;48.138;16.402;2023-09-19T05:08:00;19.90;99.90
12013;DHT22;6065;48.138;16.402;2023-09-19T05:10:30;19.80;99.90
12013;DHT22;6065;48.138;16.402;2023-09-19T05:12:58;19.80;99.90
12013;DHT22;6065;48.138;16.402;2023-09-19T05:15:26;19.80;99.90
12013;DHT22;6065;48.138;16.402;2023-09-19T05:17:53;19.70;99.90
12013;DHT22;6065;48.138;16.402;2023-09-19T05:20:21;19.80;99.90
12013;DHT22;6065;48.138;16.402;2023-09-19T05:22:57;19.70;99.90
12013;DHT22;6065;48.138;16.402;2023-09-19T05:25:25;19.70;99.90
12013;DHT22;6065;48.138;16.402;2023-09-19T05:27:55;19.60;99.90
12013;DHT22;6065;48.138;16.402;2023-09-19T05:30:25;19.60;99.90
12013;DHT22;6065;48.138;16.402;2023-09-19T05:32:52;19.60;99.90
12013;DHT22;6065;48.138;16.402;2023-09-19T05:35:19;19.50;99.90
12013;DHT22;6065;48.138;16.402;2023-09-19T05:37:47;19.50;99.90
12013;DHT22;6065;48.138;16.402;2023-09-19T05:40:16;19.50;99.90
12013;DHT22;6065;48.138;16.402;2023-09-19T05:42:43;19.50;99.90
12013;DHT22;6065;48.138;16.402;2023-09-19T05:45:10;19.50;99.90
12013;DHT22;6065;48.138;16.402;2023-09-19T05:47:39;19.50;99.90
12013;DHT22;6065;48.138;16.402;2023-09-19T05:50:10;19.50;99.90
12013;DHT22;6065;48.138;16.402;2023-09-19T05:52:38;19.50;99.90
12013;DHT22;6065;48.138;16.402;2023-09-19T05:55:06;19.40;99.90
12013;DHT22;6065;48.138;16.402;2023-09-19T05:57:33;19.40;99.90
12013;DHT22;6065;48.138;16.402;2023-09-19T06:00:00;19.40;99.90
12013;DHT22;6065;48.138;16.402;2023-09-19T06:02:27;19.40;99.90
12013;DHT22;6065;48.138;16.402;2023-09-19T06:04:56;19.40;99.90
12013;DHT22;6065;48.138;16.402;2023-09-19T06:07:23;19.40;99.90
12013;DHT22;6065;48.138;16.402;2023-09-19T06:09:51;19.40;99.90
12013;DHT22;6065;48.138;16.402;2023-09-19T06:12:19;19.40;99.90
12013;DHT22;6065;48.138;16.402;2023-09-19T06:14:46;19.40;99.90
12013;DHT22;6065;48.138;16.402;2023-09-19T06:17:13;19.40;99.90
12013;DHT22;6065;48.138;16.402;2023-09-19T06:19:40;19.40;99.90
12013;DHT22;6065;48.138;16.402;2023-09-19T06:22:15;19.40;99.90
12013;DHT22;6065;48.138;16.402;2023-09-19T06:24:44;19.50;99.90
12013;DHT22;6065;48.138;16.402;2023-09-19T06:27:12;19.50;99.90
12013;DHT22;6065;48.138;16.402;2023-09-19T06:29:39;19.50;99.90
12013;DHT22;6065;48.138;16.402;2023-09-19T06:32:06;19.50;99.90
12013;DHT22;6065;48.138;16.402;2023-09-19T06:34:33;19.60;99.90
12013;DHT22;6065;48.138;16.402;2023-09-19T06:37:00;19.60;99.90
12013;DHT22;6065;48.138;16.402;2023-09-19T06:39:29;19.60;99.90
12013;DHT22;6065;48.138;16.402;2023-09-19T06:41:56;19.70;99.90
12013;DHT22;6065;48.138;16.402;2023-09-19T06:44:23;19.70;99.90
12013;DHT22;6065;48.138;16.402;2023-09-19T06:46:51;19.70;99.90
12013;DHT22;6065;48.138;16.402;2023-09-19T06:49:17;19.80;99.90
12013;DHT22;6065;48.138;16.402;2023-09-19T06:51:44;19.80;99.90
12013;DHT22;6065;48.138;16.402;2023-09-19T06:54:11;19.80;99.90
12013;DHT22;6065;48.138;16.402;2023-09-19T06:56:39;19.70;99.90
12013;DHT22;6065;48.138;16.402;2023-09-19T06:59:06;19.80;99.90
12013;DHT22;6065;48.138;16.402;2023-09-19T07:01:34;19.80;99.90
12013;DHT22;6065;48.138;16.402;2023-09-19T07:04:03;19.80;99.90
12013;DHT22;6065;48.138;16.402;2023-09-19T07:06:30;19.80;99.90
12013;DHT22;6065;48.138;16.402;2023-09-19T07:08:57;19.90;99.90
12013;DHT22;6065;48.138;16.402;2023-09-19T07:11:24;19.90;99.90
12013;DHT22;6065;48.138;16.402;2023-09-19T07:13:52;19.90;99.90
12013;DHT22;6065;48.138;16.402;2023-09-19T07:16:18;19.80;99.90
12013;DHT22;6065;48.138;16.402;2023-09-19T07:18:55;19.90;99.90
12013;DHT22;6065;48.138;16.402;2023-09-19T07:21:22;19.90;99.90
12013;DHT22;6065;48.138;16.402;2023-09-19T07:23:49;19.90;99.90
12013;DHT22;6065;48.138;16.402;2023-09-19T07:26:16;20.00;99.90
12013;DHT22;6065;48.138;16.402;2023-09-19T07:28:42;20.00;99.90
12013;DHT22;6065;48.138;16.402;2023-09-19T07:31:10;19.90;99.90
12013;DHT22;6065;48.138;16.402;2023-09-19T07:33:39;20.00;99.90
12013;DHT22;6065;48.138;16.402;2023-09-19T07:36:09;20.00;99.90
12013;DHT22;6065;48.138;16.402;2023-09-19T07:38:36;20.00;99.90
12013;DHT22;6065;48.138;16.402;2023-09-19T07:41:03;20.00;99.90
12013;DHT22;6065;48.138;16.402;2023-09-19T07:43:30;20.00;99.90
12013;DHT22;6065;48.138;16.402;2023-09-19T07:45:57;20.00;99.90
12013;DHT22;6065;48.138;16.402;2023-09-19T07:48:27;20.00;99.90
12013;DHT22;6065;48.138;16.402;2023-09-19T07:50:54;20.00;99.90
12013;DHT22;6065;48.138;16.402;2023-09-19T07:53:20;20.00;99.90
12013;DHT22;6065;48.138;16.402;2023-09-19T07:55:47;20.00;99.90
12013;DHT22;6065;48.138;16.402;2023-09-19T07:58:14;20.00;99.90
12013;DHT22;6065;48.138;16.402;2023-09-19T08:00:41;20.10;99.90
12013;DHT22;6065;48.138;16.402;2023-09-19T08:03:08;20.10;99.90
12013;DHT22;6065;48.138;16.402;2023-09-19T08:05:41;20.10;99.90
12013;DHT22;6065;48.138;16.402;2023-09-19T08:08:11;20.10;99.90
12013;DHT22;6065;48.138;16.402;2023-09-19T08:10:40;20.10;99.90
12013;DHT22;6065;48.138;16.402;2023-09-19T08:13:10;20.20;99.90
12013;DHT22;6065;48.138;16.402;2023-09-19T08:15:42;20.20;99.90
12013;DHT22;6065;48.138;16.402;2023-09-19T08:18:09;20.30;99.90
12013;DHT22;6065;48.138;16.402;2023-09-19T08:20:37;20.30;99.90
12013;DHT22;6065;48.138;16.402;2023-09-19T08:23:05;20.30;99.90
12013;DHT22;6065;48.138;16.402;2023-09-19T08:25:33;20.40;99.90
12013;DHT22;6065;48.138;16.402;2023-09-19T08:28:00;20.40;99.90
12013;DHT22;6065;48.138;16.402;2023-09-19T08:30:28;20.50;99.90
12013;DHT22;6065;48.138;16.402;2023-09-19T08:32:56;20.50;99.90
12013;DHT22;6065;48.138;16.402;2023-09-19T08:35:23;20.50;99.90
12013;DHT22;6065;48.138;16.402;2023-09-19T08:37:50;20.50;99.90
12013;DHT22;6065;48.138;16.402;2023-09-19T08:40:18;20.50;99.90
12013;DHT22;6065;48.138;16.402;2023-09-19T08:42:48;20.60;99.90
12013;DHT22;6065;48.138;16.402;2023-09-19T08:45:16;20.60;99.90
12013;DHT22;6065;48.138;16.402;2023-09-19T08:47:45;20.60;99.90
12013;DHT22;6065;48.138;16.402;2023-09-19T08:50:15;20.60;99.90
12013;DHT22;6065;48.138;16.402;2023-09-19T08:52:45;20.60;99.90
12013;DHT22;6065;48.138;16.402;2023-09-19T08:55:13;20.60;99.90
12013;DHT22;6065;48.138;16.402;2023-09-19T08:57:47;20.60;99.90
12013;DHT22;6065;48.138;16.402;2023-09-19T09:00:16;20.70;99.90
12013;DHT22;6065;48.138;16.402;2023-09-19T09:02:45;20.70;99.90
12013;DHT22;6065;48.138;16.402;2023-09-19T09:05:13;20.70;99.90
12013;DHT22;6065;48.138;16.402;2023-09-19T09:07:41;20.70;99.90
12013;DHT22;6065;48.138;16.402;2023-09-19T09:10:09;20.70;99.90
12013;DHT22;6065;48.138;16.402;2023-09-19T09:12:37;20.70;99.90
12013;DHT22;6065;48.138;16.402;2023-09-19T09:15:08;20.70;99.90
12013;DHT22;6065;48.138;16.402;2023-09-19T09:17:37;20.70;99.90
12013;DHT22;6065;48.138;16.402;2023-09-19T09:20:04;20.70;99.90
12013;DHT22;6065;48.138;16.402;2023-09-19T09:22:33;20.70;99.90
12013;DHT22;6065;48.138;16.402;2023-09-19T09:25:01;20.70;99.90
12013;DHT22;6065;48.138;16.402;2023-09-19T09:27:29;20.70;99.90
12013;DHT22;6065;48.138;16.402;2023-09-19T09:29:58;20.70;99.90
12013;DHT22;6065;48.138;16.402;2023-09-19T09:32:26;20.70;99.90
12013;DHT22;6065;48.138;16.402;2023-09-19T09:34:54;20.70;99.90
12013;DHT22;6065;48.138;16.402;2023-09-19T09:37:22;20.80;99.90
12013;DHT22;6065;48.138;16.402;2023-09-19T09:39:53;20.80;99.90
12013;DHT22;6065;48.138;16.402;2023-09-19T09:42:31;20.80;99.90
12013;DHT22;6065;48.138;16.402;2023-09-19T09:45:13;20.90;99.90
12013;DHT22;6065;48.138;16.402;2023-09-19T09:47:45;21.00;99.90
12013;DHT22;6065;48.138;16.402;2023-09-19T09:50:27;21.00;99.90
12013;DHT22;6065;48.138;16.402;2023-09-19T09:53:04;21.10;99.90
12013;DHT22;6065;48.138;16.402;2023-09-19T09:58:18;21.30;99.90
12013;DHT22;6065;48.138;16.402;2023-09-19T10:00:52;21.50;99.90
12013;DHT22;6065;48.138;16.402;2023-09-19T10:03:23;21.70;99.90
12013;DHT22;6065;48.138;16.402;2023-09-19T10:05:57;21.70;99.90
12013;DHT22;6065;48.138;16.402;2023-09-19T10:08:34;21.90;99.90
12013;DHT22;6065;48.138;16.402;2023-09-19T10:11:14;21.90;99.90
12013;DHT22;6065;48.138;16.402;2023-09-19T10:13:41;22.00;99.90
12013;DHT22;6065;48.138;16.402;2023-09-19T10:16:09;22.20;99.90
12013;DHT22;6065;48.138;16.402;2023-09-19T10:18:37;22.30;99.90
12013;DHT22;6065;48.138;16.402;2023-09-19T10:21:05;22.30;99.90
12013;DHT22;6065;48.138;16.402;2023-09-19T10:23:34;22.40;99.90
12013;DHT22;6065;48.138;16.402;2023-09-19T10:26:02;22.50;99.90
12013;DHT22;6065;48.138;16.402;2023-09-19T10:28:30;22.50;99.90
12013;DHT22;6065;48.138;16.402;2023-09-19T10:30:58;22.50;99.90
12013;DHT22;6065;48.138;16.402;2023-09-19T10:33:27;22.60;99.90
12013;DHT22;6065;48.138;16.402;2023-09-19T10:36:03;22.60;99.90
12013;DHT22;6065;48.138;16.402;2023-09-19T10:38:31;22.70;99.90
12013;DHT22;6065;48.138;16.402;2023-09-19T10:41:00;22.80;99.90
12013;DHT22;6065;48.138;16.402;2023-09-19T10:43:29;22.80;99.90
12013;DHT22;6065;48.138;16.402;2023-09-19T10:45:59;22.90;99.90
12013;DHT22;6065;48.138;16.402;2023-09-19T10:48:27;23.10;99.90
12013;DHT22;6065;48.138;16.402;2023-09-19T10:50:56;23.20;99.90
12013;DHT22;6065;48.138;16.402;2023-09-19T10:53:26;23.30;99.90
12013;DHT22;6065;48.138;16.402;2023-09-19T10:55:55;23.30;99.90
12013;DHT22;6065;48.138;16.402;2023-09-19T10:58:28;23.40;99.60
12013;DHT22;6065;48.138;16.402;2023-09-19T11:00:55;23.50;99.20
12013;DHT22;6065;48.138;16.402;2023-09-19T11:03:26;23.60;98.80
12013;DHT22;6065;48.138;16.402;2023-09-19T11:06:03;23.60;98.50
12013;DHT22;6065;48.138;16.402;2023-09-19T11:11:43;23.60;98.50
12013;DHT22;6065;48.138;16.402;2023-09-19T11:14:15;23.60;98.60
12013;DHT22;6065;48.138;16.402;2023-09-19T11:19:23;23.70;98.60
12013;DHT22;6065;48.138;16.402;2023-09-19T11:21:53;23.80;98.60
12013;DHT22;6065;48.138;16.402;2023-09-19T11:24:28;23.90;98.30
12013;DHT22;6065;48.138;16.402;2023-09-19T11:29:44;24.00;98.20
12013;DHT22;6065;48.138;16.402;2023-09-19T11:32:12;23.90;98.00
12013;DHT22;6065;48.138;16.402;2023-09-19T11:40:05;24.10;97.80
12013;DHT22;6065;48.138;16.402;2023-09-19T11:42:41;24.20;97.70
12013;DHT22;6065;48.138;16.402;2023-09-19T11:45:14;24.30;97.40
12013;DHT22;6065;48.138;16.402;2023-09-19T11:48:03;24.40;96.80
12013;DHT22;6065;48.138;16.402;2023-09-19T11:50:31;24.40;96.60
12013;DHT22;6065;48.138;16.402;2023-09-19T11:53:00;24.40;96.50
12013;DHT22;6065;48.138;16.402;2023-09-19T11:55:28;24.40;96.70
12013;DHT22;6065;48.138;16.402;2023-09-19T11:57:56;24.50;97.10
12013;DHT22;6065;48.138;16.402;2023-09-19T12:00:23;24.60;97.30
12013;DHT22;6065;48.138;16.402;2023-09-19T12:02:49;24.80;97.20
12013;DHT22;6065;48.138;16.402;2023-09-19T12:05:29;24.80;97.00
12013;DHT22;6065;48.138;16.402;2023-09-19T12:07:56;24.80;96.90
12013;DHT22;6065;48.138;16.402;2023-09-19T12:10:23;24.70;96.30
12013;DHT22;6065;48.138;16.402;2023-09-19T12:12:50;24.60;96.00
12013;DHT22;6065;48.138;16.402;2023-09-19T12:15:22;24.60;95.90
12013;DHT22;6065;48.138;16.402;2023-09-19T12:17:50;24.60;95.80
12013;DHT22;6065;48.138;16.402;2023-09-19T12:20:17;24.60;95.80
12013;DHT22;6065;48.138;16.402;2023-09-19T12:22:46;24.70;95.80
12013;DHT22;6065;48.138;16.402;2023-09-19T12:25:15;24.80;95.60
12013;DHT22;6065;48.138;16.402;2023-09-19T12:27:43;24.90;95.80
12013;DHT22;6065;48.138;16.402;2023-09-19T12:30:12;25.00;95.50
12013;DHT22;6065;48.138;16.402;2023-09-19T12:32:40;25.10;95.00
12013;DHT22;6065;48.138;16.402;2023-09-19T12:35:07;25.10;94.80
12013;DHT22;6065;48.138;16.402;2023-09-19T12:37:36;25.20;94.70
12013;DHT22;6065;48.138;16.402;2023-09-19T12:40:05;25.20;94.50
12013;DHT22;6065;48.138;16.402;2023-09-19T12:42:41;25.30;94.50
12013;DHT22;6065;48.138;16.402;2023-09-19T12:45:09;25.40;94.60
12013;DHT22;6065;48.138;16.402;2023-09-19T12:47:35;25.40;94.40
12013;DHT22;6065;48.138;16.402;2023-09-19T12:50:05;25.50;93.60
12013;DHT22;6065;48.138;16.402;2023-09-19T12:52:34;25.50;93.80
12013;DHT22;6065;48.138;16.402;2023-09-19T12:55:01;25.50;93.60
12013;DHT22;6065;48.138;16.402;2023-09-19T12:57:31;25.50;93.60
12013;DHT22;6065;48.138;16.402;2023-09-19T13:00:00;25.50;93.50
12013;DHT22;6065;48.138;16.402;2023-09-19T13:02:26;25.50;93.60
12013;DHT22;6065;48.138;16.402;2023-09-19T13:04:54;25.40;93.80
12013;DHT22;6065;48.138;16.402;2023-09-19T13:07:41;25.40;93.70
12013;DHT22;6065;48.138;16.402;2023-09-19T13:10:12;25.40;94.00
12013;DHT22;6065;48.138;16.402;2023-09-19T13:12:43;25.40;94.00
12013;DHT22;6065;48.138;16.402;2023-09-19T13:15:13;25.40;93.80
12013;DHT22;6065;48.138;16.402;2023-09-19T13:17:45;25.50;93.40
12013;DHT22;6065;48.138;16.402;2023-09-19T13:20:21;25.50;93.60
12013;DHT22;6065;48.138;16.402;2023-09-19T13:22:53;25.60;93.60
12013;DHT22;6065;48.138;16.402;2023-09-19T13:25:25;25.70;93.20
12013;DHT22;6065;48.138;16.402;2023-09-19T13:27:56;25.70;92.70
12013;DHT22;6065;48.138;16.402;2023-09-19T13:30:23;25.70;92.30
12013;DHT22;6065;48.138;16.402;2023-09-19T13:32:51;25.70;92.40
12013;DHT22;6065;48.138;16.402;2023-09-19T13:35:18;25.70;92.30
12013;DHT22;6065;48.138;16.402;2023-09-19T13:37:46;25.70;92.30
12013;DHT22;6065;48.138;16.402;2023-09-19T13:40:19;25.80;92.30
12013;DHT22;6065;48.138;16.402;2023-09-19T13:42:45;25.80;92.30
12013;DHT22;6065;48.138;16.402;2023-09-19T13:45:14;25.80;92.00
12013;DHT22;6065;48.138;16.402;2023-09-19T13:47:42;25.90;91.70
12013;DHT22;6065;48.138;16.402;2023-09-19T13:50:09;25.80;91.90
12013;DHT22;6065;48.138;16.402;2023-09-19T13:52:36;25.80;92.10
12013;DHT22;6065;48.138;16.402;2023-09-19T13:55:04;25.80;92.20
12013;DHT22;6065;48.138;16.402;2023-09-19T13:57:32;25.80;92.00
12013;DHT22;6065;48.138;16.402;2023-09-19T13:59:59;25.70;92.30
12013;DHT22;6065;48.138;16.402;2023-09-19T14:02:27;25.70;92.30
12013;DHT22;6065;48.138;16.402;2023-09-19T14:04:54;25.70;92.20
12013;DHT22;6065;48.138;16.402;2023-09-19T14:07:20;25.80;92.00
12013;DHT22;6065;48.138;16.402;2023-09-19T14:09:47;25.70;91.80
12013;DHT22;6065;48.138;16.402;2023-09-19T14:12:14;25.70;91.80
12013;DHT22;6065;48.138;16.402;2023-09-19T14:14:41;25.70;92.10
12013;DHT22;6065;48.138;16.402;2023-09-19T14:17:07;25.70;91.90
12013;DHT22;6065;48.138;16.402;2023-09-19T14:19:36;25.70;92.00
12013;DHT22;6065;48.138;16.402;2023-09-19T14:22:04;25.70;91.90
12013;DHT22;6065;48.138;16.402;2023-09-19T14:24:33;25.70;91.90
12013;DHT22;6065;48.138;16.402;2023-09-19T14:27:00;25.60;92.00
12013;DHT22;6065;48.138;16.402;2023-09-19T14:29:29;25.70;91.90
12013;DHT22;6065;48.138;16.402;2023-09-19T14:31:56;25.60;91.90
12013;DHT22;6065;48.138;16.402;2023-09-19T14:34:23;25.60;92.00
12013;DHT22;6065;48.138;16.402;2023-09-19T14:36:51;25.60;92.40
12013;DHT22;6065;48.138;16.402;2023-09-19T14:39:19;25.60;92.40
12013;DHT22;6065;48.138;16.402;2023-09-19T14:41:46;25.60;92.00
12013;DHT22;6065;48.138;16.402;2023-09-19T14:44:13;25.60;91.70
12013;DHT22;6065;48.138;16.402;2023-09-19T14:46:41;25.50;92.00
12013;DHT22;6065;48.138;16.402;2023-09-19T14:49:09;25.50;92.00
12013;DHT22;6065;48.138;16.402;2023-09-19T14:51:35;25.50;92.00
12013;DHT22;6065;48.138;16.402;2023-09-19T14:54:06;25.50;92.10
12013;DHT22;6065;48.138;16.402;2023-09-19T14:56:33;25.50;92.20
12013;DHT22;6065;48.138;16.402;2023-09-19T14:59:00;25.50;92.10
12013;DHT22;6065;48.138;16.402;2023-09-19T15:01:28;25.40;92.20
12013;DHT22;6065;48.138;16.402;2023-09-19T15:03:54;25.40;92.10
12013;DHT22;6065;48.138;16.402;2023-09-19T15:06:21;25.40;91.90
12013;DHT22;6065;48.138;16.402;2023-09-19T15:08:48;25.40;91.90
12013;DHT22;6065;48.138;16.402;2023-09-19T15:11:17;25.30;92.20
12013;DHT22;6065;48.138;16.402;2023-09-19T15:13:45;25.30;92.40
12013;DHT22;6065;48.138;16.402;2023-09-19T15:16:12;25.30;92.60
12013;DHT22;6065;48.138;16.402;2023-09-19T15:18:39;25.30;92.30
12013;DHT22;6065;48.138;16.402;2023-09-19T15:21:07;25.30;92.50
12013;DHT22;6065;48.138;16.402;2023-09-19T15:23:34;25.30;92.60
12013;DHT22;6065;48.138;16.402;2023-09-19T15:26:02;25.20;92.80
12013;DHT22;6065;48.138;16.402;2023-09-19T15:28:34;25.20;93.00
12013;DHT22;6065;48.138;16.402;2023-09-19T15:31:01;25.20;92.90
12013;DHT22;6065;48.138;16.402;2023-09-19T15:33:28;25.10;92.90
12013;DHT22;6065;48.138;16.402;2023-09-19T15:36:02;25.00;92.90
12013;DHT22;6065;48.138;16.402;2023-09-19T15:38:30;25.00;93.00
12013;DHT22;6065;48.138;16.402;2023-09-19T15:40:57;25.00;92.90
12013;DHT22;6065;48.138;16.402;2023-09-19T15:43:24;24.90;92.80
12013;DHT22;6065;48.138;16.402;2023-09-19T15:45:52;24.80;92.80
12013;DHT22;6065;48.138;16.402;2023-09-19T15:48:19;24.80;93.00
12013;DHT22;6065;48.138;16.402;2023-09-19T15:50:47;24.80;92.80
12013;DHT22;6065;48.138;16.402;2023-09-19T15:53:13;24.70;92.80
12013;DHT22;6065;48.138;16.402;2023-09-19T15:55:42;24.60;92.90
12013;DHT22;6065;48.138;16.402;2023-09-19T15:58:09;24.60;92.90
12013;DHT22;6065;48.138;16.402;2023-09-19T16:00:39;24.50;93.10